sensor_id;sensor_type;location;lat;lon;timestamp;temperature;humidity
23301;DHT22;11819;51.394;12.340;2023-08-17T00:01:27;23.50;94.40
23301;DHT22;11819;51.394;12.340;2023-08-17T00:03:53;23.50;94.50
23301;DHT22;11819;51.394;12.340;2023-08-17T00:06:18;23.40;94.50
23301;DHT22;11819;51.394;12.340;2023-08-17T00:08:44;23.40;94.60
23301;DHT22;11819;51.394;12.340;2023-08-17T00:11:10;23.40;94.60
23301;DHT22;11819;51.394;12.340;2023-08-17T00:13:35;23.40;94.60
23301;DHT22;11819;51.394;12.340;2023-08-17T00:16:01;23.40;94.70
23301;DHT22;11819;51.394;12.340;2023-08-17T00:18:27;23.40;94.70
23301;DHT22;11819;51.394;12.340;2023-08-17T00:20:53;23.30;94.70
23301;DHT22;11819;51.394;12.340;2023-08-17T00:23:19;23.30;94.70
23301;DHT22;11819;51.394;12.340;2023-08-17T00:25:46;23.30;94.80
23301;DHT22;11819;51.394;12.340;2023-08-17T00:28:14;23.20;94.80
23301;DHT22;11819;51.394;12.340;2023-08-17T00:30:39;23.20;94.90
23301;DHT22;11819;51.394;12.340;2023-08-17T00:33:05;23.20;95.00
23301;DHT22;11819;51.394;12.340;2023-08-17T00:35:32;23.20;95.10
23301;DHT22;11819;51.394;12.340;2023-08-17T00:37:59;23.20;95.00
23301;DHT22;11819;51.394;12.340;2023-08-17T00:40:24;23.20;94.90
23301;DHT22;11819;51.394;12.340;2023-08-17T00:42:50;23.20;94.90
23301;DHT22;11819;51.394;12.340;2023-08-17T00:45:17;23.20;94.90
23301;DHT22;11819;51.394;12.340;2023-08-17T00:47:43;23.20;94.80
23301;DHT22;11819;51.394;12.340;2023-08-17T00:50:10;23.20;94.70
23301;DHT22;11819;51.394;12.340;2023-08-17T00:52:38;23.10;95.10
23301;DHT22;11819;51.394;12.340;2023-08-17T00:55:05;23.10;94.70
23301;DHT22;11819;51.394;12.340;2023-08-17T00:57:31;23.10;94.80
23301;DHT22;11819;51.394;12.340;2023-08-17T00:59:58;23.10;94.80
23301;DHT22;11819;51.394;12.340;2023-08-17T01:02:25;23.10;94.90
23301;DHT22;11819;51.394;12.340;2023-08-17T01:04:50;23.10;94.90
23301;DHT22;11819;51.394;12.340;2023-08-17T01:07:17;23.10;94.90
23301;DHT22;11819;51.394;12.340;2023-08-17T01:09:43;23.10;95.00
23301;DHT22;11819;51.394;12.340;2023-08-17T01:12:19;23.00;95.00
23301;DHT22;11819;51.394;12.340;2023-08-17T01:14:58;23.00;95.10
23301;DHT22;11819;51.394;12.340;2023-08-17T01:17:51;23.00;95.10
23301;DHT22;11819;51.394;12.340;2023-08-17T01:20:18;23.00;95.10
23301;DHT22;11819;51.394;12.340;2023-08-17T01:22:46;23.00;95.10
23301;DHT22;11819;51.394;12.340;2023-08-17T01:25:14;22.90;95.10
23301;DHT22;11819;51.394;12.340;2023-08-17T01:27:46;22.90;95.10
23301;DHT22;11819;51.394;12.340;2023-08-17T01:30:16;22.90;95.20
23301;DHT22;11819;51.394;12.340;2023-08-17T01:32:57;22.90;95.30
23301;DHT22;11819;51.394;12.340;2023-08-17T01:35:31;22.80;95.30
23301;DHT22;11819;51.394;12.340;2023-08-17T01:38:02;22.80;95.30
23301;DHT22;11819;51.394;12.340;2023-08-17T01:40:32;22.80;95.30
23301;DHT22;11819;51.394;12.340;2023-08-17T01:42:58;22.80;95.30
23301;DHT22;11819;51.394;12.340;2023-08-17T01:45:25;22.80;95.20
23301;DHT22;11819;51.394;12.340;2023-08-17T01:47:51;22.80;95.20
23301;DHT22;11819;51.394;12.340;2023-08-17T01:50:16;22.80;95.20
23301;DHT22;11819;51.394;12.340;2023-08-17T01:52:42;22.70;95.20
23301;DHT22;11819;51.394;12.340;2023-08-17T01:55:08;22.70;95.30
23301;DHT22;11819;51.394;12.340;2023-08-17T01:57:35;22.60;95.40
23301;DHT22;11819;51.394;12.340;2023-08-17T02:00:06;22.60;95.40
23301;DHT22;11819;51.394;12.340;2023-08-17T02:02:41;22.60;95.50
23301;DHT22;11819;51.394;12.340;2023-08-17T02:05:07;22.60;95.60
23301;DHT22;11819;51.394;12.340;2023-08-17T02:07:33;22.50;95.60
23301;DHT22;11819;51.394;12.340;2023-08-17T02:09:59;22.40;95.80
23301;DHT22;11819;51.394;12.340;2023-08-17T02:12:25;22.20;96.40
23301;DHT22;11819;51.394;12.340;2023-08-17T02:14:51;22.20;97.00
23301;DHT22;11819;51.394;12.340;2023-08-17T02:17:16;22.10;97.30
23301;DHT22;11819;51.394;12.340;2023-08-17T02:19:44;22.00;97.50
23301;DHT22;11819;51.394;12.340;2023-08-17T02:22:11;22.00;97.30
23301;DHT22;11819;51.394;12.340;2023-08-17T02:24:36;22.00;97.30
23301;DHT22;11819;51.394;12.340;2023-08-17T02:27:02;22.00;97.50
23301;DHT22;11819;51.394;12.340;2023-08-17T02:29:28;22.00;97.70
23301;DHT22;11819;51.394;12.340;2023-08-17T02:31:54;22.00;97.60
23301;DHT22;11819;51.394;12.340;2023-08-17T02:34:19;22.00;96.90
23301;DHT22;11819;51.394;12.340;2023-08-17T02:36:45;21.80;95.60
23301;DHT22;11819;51.394;12.340;2023-08-17T02:39:10;21.70;95.80
23301;DHT22;11819;51.394;12.340;2023-08-17T02:41:36;21.60;96.40
23301;DHT22;11819;51.394;12.340;2023-08-17T02:44:02;21.50;96.20
23301;DHT22;11819;51.394;12.340;2023-08-17T02:46:28;21.30;96.60
23301;DHT22;11819;51.394;12.340;2023-08-17T02:48:53;21.10;96.80
23301;DHT22;11819;51.394;12.340;2023-08-17T02:51:19;21.00;97.10
23301;DHT22;11819;51.394;12.340;2023-08-17T02:53:45;21.00;97.30
23301;DHT22;11819;51.394;12.340;2023-08-17T02:56:10;20.90;97.10
23301;DHT22;11819;51.394;12.340;2023-08-17T02:58:39;20.90;97.40
23301;DHT22;11819;51.394;12.340;2023-08-17T03:01:08;20.80;97.70
23301;DHT22;11819;51.394;12.340;2023-08-17T03:03:34;20.70;98.50
23301;DHT22;11819;51.394;12.340;2023-08-17T03:06:01;20.70;99.80
23301;DHT22;11819;51.394;12.340;2023-08-17T03:08:27;20.60;99.90
23301;DHT22;11819;51.394;12.340;2023-08-17T03:10:53;20.50;99.90
23301;DHT22;11819;51.394;12.340;2023-08-17T03:13:19;20.40;99.90
23301;DHT22;11819;51.394;12.340;2023-08-17T03:15:45;20.30;99.90
23301;DHT22;11819;51.394;12.340;2023-08-17T03:18:11;20.20;99.90
23301;DHT22;11819;51.394;12.340;2023-08-17T03:20:37;20.20;99.90
23301;DHT22;11819;51.394;12.340;2023-08-17T03:23:04;20.10;99.90
23301;DHT22;11819;51.394;12.340;2023-08-17T03:25:34;20.00;99.90
23301;DHT22;11819;51.394;12.340;2023-08-17T03:28:00;19.90;99.90
23301;DHT22;11819;51.394;12.340;2023-08-17T03:30:27;20.00;99.90
23301;DHT22;11819;51.394;12.340;2023-08-17T03:32:53;20.10;99.90
23301;DHT22;11819;51.394;12.340;2023-08-17T03:35:19;20.10;99.90
23301;DHT22;11819;51.394;12.340;2023-08-17T03:37:45;20.20;99.90
23301;DHT22;11819;51.394;12.340;2023-08-17T03:40:12;20.30;99.90
23301;DHT22;11819;51.394;12.340;2023-08-17T03:42:38;20.40;99.90
23301;DHT22;11819;51.394;12.340;2023-08-17T03:45:04;20.50;99.90
23301;DHT22;11819;51.394;12.340;2023-08-17T03:47:30;20.50;99.90
23301;DHT22;11819;51.394;12.340;2023-08-17T03:49:56;20.40;99.90
23301;DHT22;11819;51.394;12.340;2023-08-17T03:52:22;20.40;99.90
23301;DHT22;11819;51.394;12.340;2023-08-17T03:54:48;20.40;99.90
23301;DHT22;11819;51.394;12.340;2023-08-17T03:57:13;20.40;99.90
23301;DHT22;11819;51.394;12.340;2023-08-17T03:59:40;20.40;99.90
23301;DHT22;11819;51.394;12.340;2023-08-17T04:02:06;20.50;99.90
23301;DHT22;11819;51.394;12.340;2023-08-17T04:04:34;20.40;99.90
23301;DHT22;11819;51.394;12.340;2023-08-17T04:07:00;20.50;99.90
23301;DHT22;11819;51.394;12.340;2023-08-17T04:09:25;20.60;99.90
23301;DHT22;11819;51.394;12.340;2023-08-17T04:11:52;20.60;99.90
23301;DHT22;11819;51.394;12.340;2023-08-17T04:14:17;20.50;99.90
23301;DHT22;11819;51.394;12.340;2023-08-17T04:16:45;20.40;99.90
23301;DHT22;11819;51.394;12.340;2023-08-17T04:19:11;20.20;99.90
23301;DHT22;11819;51.394;12.340;2023-08-17T04:21:38;20.10;99.90
23301;DHT22;11819;51.394;12.340;2023-08-17T04:24:04;20.00;99.90
23301;DHT22;11819;51.394;12.340;2023-08-17T04:26:29;20.00;99.90
23301;DHT22;11819;51.394;12.340;2023-08-17T04:28:55;20.00;99.90
23301;DHT22;11819;51.394;12.340;2023-08-17T04:31:21;20.10;99.90
23301;DHT22;11819;51.394;12.340;2023-08-17T04:33:54;20.20;99.90
23301;DHT22;11819;51.394;12.340;2023-08-17T04:36:20;20.20;99.90
23301;DHT22;11819;51.394;12.340;2023-08-17T04:38:46;20.30;99.90
23301;DHT22;11819;51.394;12.340;2023-08-17T04:41:11;20.30;99.90
23301;DHT22;11819;51.394;12.340;2023-08-17T04:43:37;20.40;99.90
23301;DHT22;11819;51.394;12.340;2023-08-17T04:46:03;20.50;99.90
23301;DHT22;11819;51.394;12.340;2023-08-17T04:48:29;20.50;99.90
23301;DHT22;11819;51.394;12.340;2023-08-17T04:50:55;20.60;99.90
23301;DHT22;11819;51.394;12.340;2023-08-17T04:53:20;20.60;99.90
23301;DHT22;11819;51.394;12.340;2023-08-17T04:55:46;20.60;99.90
23301;DHT22;11819;51.394;12.340;2023-08-17T04:58:12;20.70;99.90
23301;DHT22;11819;51.394;12.340;2023-08-17T05:00:40;20.70;99.90
23301;DHT22;11819;51.394;12.340;2023-08-17T05:03:07;20.70;99.90
23301;DHT22;11819;51.394;12.340;2023-08-17T05:05:37;20.70;99.90
23301;DHT22;11819;51.394;12.340;2023-08-17T05:08:08;20.70;99.90
23301;DHT22;11819;51.394;12.340;2023-08-17T05:10:35;20.70;99.90
23301;DHT22;11819;51.394;12.340;2023-08-17T05:13:04;20.80;99.90
23301;DHT22;11819;51.394;12.340;2023-08-17T05:15:31;20.80;99.90
23301;DHT22;11819;51.394;12.340;2023-08-17T05:17:57;20.80;99.90
23301;DHT22;11819;51.394;12.340;2023-08-17T05:20:23;20.80;99.90
23301;DHT22;11819;51.394;12.340;2023-08-17T05:22:49;20.90;99.90
23301;DHT22;11819;51.394;12.340;2023-08-17T05:25:15;20.90;99.90
23301;DHT22;11819;51.394;12.340;2023-08-17T05:27:41;20.90;99.90
23301;DHT22;11819;51.394;12.340;2023-08-17T05:30:08;21.00;99.90
23301;DHT22;11819;51.394;12.340;2023-08-17T05:32:33;21.00;99.90
23301;DHT22;11819;51.394;12.340;2023-08-17T05:34:59;21.00;99.90
23301;DHT22;11819;51.394;12.340;2023-08-17T05:37:25;21.10;99.90
23301;DHT22;11819;51.394;12.340;2023-08-17T05:39:51;21.10;99.90
23301;DHT22;11819;51.394;12.340;2023-08-17T05:42:16;21.10;99.90
23301;DHT22;11819;51.394;12.340;2023-08-17T05:44:42;21.20;99.90
23301;DHT22;11819;51.394;12.340;2023-08-17T05:47:07;21.20;99.90
23301;DHT22;11819;51.394;12.340;2023-08-17T05:49:33;21.20;99.90
23301;DHT22;11819;51.394;12.340;2023-08-17T05:51:59;21.20;99.90
23301;DHT22;11819;51.394;12.340;2023-08-17T05:54:24;21.30;99.90
23301;DHT22;11819;51.394;12.340;2023-08-17T05:56:50;21.30;99.90
23301;DHT22;11819;51.394;12.340;2023-08-17T05:59:15;21.30;99.90
23301;DHT22;11819;51.394;12.340;2023-08-17T06:01:41;21.30;99.90
23301;DHT22;11819;51.394;12.340;2023-08-17T06:04:07;21.40;99.90
23301;DHT22;11819;51.394;12.340;2023-08-17T06:06:32;21.40;99.90
23301;DHT22;11819;51.394;12.340;2023-08-17T06:08:59;21.40;99.90
23301;DHT22;11819;51.394;12.340;2023-08-17T06:11:24;21.40;99.90
23301;DHT22;11819;51.394;12.340;2023-08-17T06:13:50;21.40;99.90
23301;DHT22;11819;51.394;12.340;2023-08-17T06:16:16;21.40;99.90
23301;DHT22;11819;51.394;12.340;2023-08-17T06:18:42;21.40;99.90
23301;DHT22;11819;51.394;12.340;2023-08-17T06:21:08;21.40;99.90
23301;DHT22;11819;51.394;12.340;2023-08-17T06:23:34;21.40;99.90
23301;DHT22;11819;51.394;12.340;2023-08-17T06:26:00;21.50;99.90
23301;DHT22;11819;51.394;12.340;2023-08-17T06:28:26;21.50;99.90
23301;DHT22;11819;51.394;12.340;2023-08-17T06:30:56;21.50;99.90
23301;DHT22;11819;51.394;12.340;2023-08-17T06:33:22;21.50;99.90
23301;DHT22;11819;51.394;12.340;2023-08-17T06:35:51;21.50;99.90
23301;DHT22;11819;51.394;12.340;2023-08-17T06:38:17;21.50;99.90
23301;DHT22;11819;51.394;12.340;2023-08-17T06:40:42;21.60;99.90
23301;DHT22;11819;51.394;12.340;2023-08-17T06:43:08;21.60;99.90
23301;DHT22;11819;51.394;12.340;2023-08-17T06:45:34;21.50;99.90
23301;DHT22;11819;51.394;12.340;2023-08-17T06:48:00;21.50;99.90
23301;DHT22;11819;51.394;12.340;2023-08-17T06:50:26;21.50;99.90
23301;DHT22;11819;51.394;12.340;2023-08-17T06:52:52;21.50;99.90
23301;DHT22;11819;51.394;12.340;2023-08-17T06:55:18;21.50;99.90
23301;DHT22;11819;51.394;12.340;2023-08-17T06:57:44;21.60;99.90
23301;DHT22;11819;51.394;12.340;2023-08-17T07:00:10;21.50;99.90
23301;DHT22;11819;51.394;12.340;2023-08-17T07:02:38;21.60;99.90
23301;DHT22;11819;51.394;12.340;2023-08-17T07:05:04;21.60;99.90
23301;DHT22;11819;51.394;12.340;2023-08-17T07:07:30;21.70;99.90
23301;DHT22;11819;51.394;12.340;2023-08-17T07:09:59;21.80;99.90
23301;DHT22;11819;51.394;12.340;2023-08-17T07:12:24;21.90;99.90
23301;DHT22;11819;51.394;12.340;2023-08-17T07:14:50;21.90;99.90
23301;DHT22;11819;51.394;12.340;2023-08-17T07:17:16;22.00;99.90
23301;DHT22;11819;51.394;12.340;2023-08-17T07:19:41;22.00;99.90
23301;DHT22;11819;51.394;12.340;2023-08-17T07:22:07;22.00;99.90
23301;DHT22;11819;51.394;12.340;2023-08-17T07:24:33;22.00;99.90
23301;DHT22;11819;51.394;12.340;2023-08-17T07:26:58;22.00;99.90
23301;DHT22;11819;51.394;12.340;2023-08-17T07:29:24;22.00;99.90
23301;DHT22;11819;51.394;12.340;2023-08-17T07:31:50;22.00;99.90
23301;DHT22;11819;51.394;12.340;2023-08-17T07:34:15;22.00;99.90
23301;DHT22;11819;51.394;12.340;2023-08-17T07:36:41;22.10;99.90
23301;DHT22;11819;51.394;12.340;2023-08-17T07:39:07;22.10;99.90
23301;DHT22;11819;51.394;12.340;2023-08-17T07:41:40;22.10;99.90
23301;DHT22;11819;51.394;12.340;2023-08-17T07:44:06;22.20;99.90
23301;DHT22;11819;51.394;12.340;2023-08-17T07:46:31;22.20;99.90
23301;DHT22;11819;51.394;12.340;2023-08-17T07:48:57;22.20;99.90
23301;DHT22;11819;51.394;12.340;2023-08-17T07:51:23;22.20;99.90
23301;DHT22;11819;51.394;12.340;2023-08-17T07:53:48;22.20;99.90
23301;DHT22;11819;51.394;12.340;2023-08-17T07:56:14;22.20;99.90
23301;DHT22;11819;51.394;12.340;2023-08-17T07:58:39;22.10;99.90
23301;DHT22;11819;51.394;12.340;2023-08-17T08:01:05;22.10;99.90
23301;DHT22;11819;51.394;12.340;2023-08-17T08:03:31;22.10;99.90
23301;DHT22;11819;51.394;12.340;2023-08-17T08:05:56;22.10;99.90
23301;DHT22;11819;51.394;12.340;2023-08-17T08:08:22;22.10;99.90
23301;DHT22;11819;51.394;12.340;2023-08-17T08:10:47;22.10;99.90
23301;DHT22;11819;51.394;12.340;2023-08-17T08:13:13;22.10;99.90
23301;DHT22;11819;51.394;12.340;2023-08-17T08:15:39;22.10;99.90
23301;DHT22;11819;51.394;12.340;2023-08-17T08:18:05;22.10;99.90
23301;DHT22;11819;51.394;12.340;2023-08-17T08:20:32;22.20;99.90
23301;DHT22;11819;51.394;12.340;2023-08-17T08:22:57;22.20;99.90
23301;DHT22;11819;51.394;12.340;2023-08-17T08:25:23;22.20;99.90
23301;DHT22;11819;51.394;12.340;2023-08-17T08:27:49;22.20;99.90
23301;DHT22;11819;51.394;12.340;2023-08-17T08:30:14;22.30;99.90
23301;DHT22;11819;51.394;12.340;2023-08-17T08:32:40;22.30;99.90
23301;DHT22;11819;51.394;12.340;2023-08-17T08:35:06;22.30;99.90
23301;DHT22;11819;51.394;12.340;2023-08-17T08:37:33;22.40;99.90
23301;DHT22;11819;51.394;12.340;2023-08-17T08:39:59;22.50;99.90
23301;DHT22;11819;51.394;12.340;2023-08-17T08:42:25;22.60;99.90
23301;DHT22;11819;51.394;12.340;2023-08-17T08:44:50;22.70;99.90
23301;DHT22;11819;51.394;12.340;2023-08-17T08:47:17;22.70;99.90
23301;DHT22;11819;51.394;12.340;2023-08-17T08:49:58;22.80;99.90
23301;DHT22;11819;51.394;12.340;2023-08-17T08:52:36;22.90;99.90
23301;DHT22;11819;51.394;12.340;2023-08-17T08:55:17;23.00;99.90
23301;DHT22;11819;51.394;12.340;2023-08-17T08:57:43;23.10;99.90
23301;DHT22;11819;51.394;12.340;2023-08-17T09:00:11;23.30;99.90
23301;DHT22;11819;51.394;12.340;2023-08-17T09:02:37;23.40;99.90
23301;DHT22;11819;51.394;12.340;2023-08-17T09:05:04;23.40;99.90
23301;DHT22;11819;51.394;12.340;2023-08-17T09:07:31;23.50;99.90
23301;DHT22;11819;51.394;12.340;2023-08-17T09:09:58;23.60;99.90
23301;DHT22;11819;51.394;12.340;2023-08-17T09:12:24;23.60;99.90
23301;DHT22;11819;51.394;12.340;2023-08-17T09:14:50;23.60;99.90
23301;DHT22;11819;51.394;12.340;2023-08-17T09:17:26;23.70;99.90
23301;DHT22;11819;51.394;12.340;2023-08-17T09:19:53;23.60;99.90
23301;DHT22;11819;51.394;12.340;2023-08-17T09:22:23;23.70;99.90
23301;DHT22;11819;51.394;12.340;2023-08-17T09:24:49;23.70;99.90
23301;DHT22;11819;51.394;12.340;2023-08-17T09:27:15;23.80;99.90
23301;DHT22;11819;51.394;12.340;2023-08-17T09:29:43;23.90;99.90
23301;DHT22;11819;51.394;12.340;2023-08-17T09:32:11;23.90;99.90
23301;DHT22;11819;51.394;12.340;2023-08-17T09:34:37;23.90;99.90
23301;DHT22;11819;51.394;12.340;2023-08-17T09:37:05;23.80;99.90
23301;DHT22;11819;51.394;12.340;2023-08-17T09:39:31;23.80;99.90
23301;DHT22;11819;51.394;12.340;2023-08-17T09:41:57;23.90;99.90
23301;DHT22;11819;51.394;12.340;2023-08-17T09:44:24;23.90;99.90
23301;DHT22;11819;51.394;12.340;2023-08-17T09:46:50;24.00;99.90
23301;DHT22;11819;51.394;12.340;2023-08-17T09:49:17;24.10;99.90
23301;DHT22;11819;51.394;12.340;2023-08-17T09:51:44;24.20;99.90
23301;DHT22;11819;51.394;12.340;2023-08-17T09:54:23;24.20;99.90
23301;DHT22;11819;51.394;12.340;2023-08-17T09:56:53;24.20;99.90
23301;DHT22;11819;51.394;12.340;2023-08-17T09:59:19;24.20;99.90
23301;DHT22;11819;51.394;12.340;2023-08-17T10:01:49;24.30;99.90
23301;DHT22;11819;51.394;12.340;2023-08-17T10:04:21;24.30;99.90
23301;DHT22;11819;51.394;12.340;2023-08-17T10:07:00;24.40;99.90
23301;DHT22;11819;51.394;12.340;2023-08-17T10:09:35;24.40;99.90
23301;DHT22;11819;51.394;12.340;2023-08-17T10:12:06;24.50;99.90
23301;DHT22;11819;51.394;12.340;2023-08-17T10:14:39;24.40;99.60
23301;DHT22;11819;51.394;12.340;2023-08-17T10:17:13;24.40;99.60
23301;DHT22;11819;51.394;12.340;2023-08-17T10:19:47;24.40;99.80
23301;DHT22;11819;51.394;12.340;2023-08-17T10:22:23;24.40;99.70
23301;DHT22;11819;51.394;12.340;2023-08-17T10:24:51;24.40;99.00
23301;DHT22;11819;51.394;12.340;2023-08-17T10:27:20;24.30;98.50
23301;DHT22;11819;51.394;12.340;2023-08-17T10:29:47;24.30;98.70
23301;DHT22;11819;51.394;12.340;2023-08-17T10:32:13;24.30;98.80
23301;DHT22;11819;51.394;12.340;2023-08-17T10:34:40;24.30;99.60
23301;DHT22;11819;51.394;12.340;2023-08-17T10:37:07;24.40;99.80
23301;DHT22;11819;51.394;12.340;2023-08-17T10:39:33;24.40;99.90
23301;DHT22;11819;51.394;12.340;2023-08-17T10:42:00;24.50;99.90
23301;DHT22;11819;51.394;12.340;2023-08-17T10:49:51;24.70;98.80
23301;DHT22;11819;51.394;12.340;2023-08-17T10:52:29;24.70;98.90
23301;DHT22;11819;51.394;12.340;2023-08-17T10:54:55;24.80;98.60
23301;DHT22;11819;51.394;12.340;2023-08-17T11:00:18;25.00;99.30
23301;DHT22;11819;51.394;12.340;2023-08-17T11:03:08;25.00;99.20
23301;DHT22;11819;51.394;12.340;2023-08-17T11:05:42;25.20;98.60
23301;DHT22;11819;51.394;12.340;2023-08-17T11:11:05;25.30;97.40
23301;DHT22;11819;51.394;12.340;2023-08-17T11:13:38;25.30;97.60
23301;DHT22;11819;51.394;12.340;2023-08-17T11:16:05;25.40;97.70
23301;DHT22;11819;51.394;12.340;2023-08-17T11:18:32;25.50;97.00
23301;DHT22;11819;51.394;12.340;2023-08-17T11:20:58;25.50;96.60
23301;DHT22;11819;51.394;12.340;2023-08-17T11:23:24;25.60;96.90
23301;DHT22;11819;51.394;12.340;2023-08-17T11:25:52;25.60;97.00
23301;DHT22;11819;51.394;12.340;2023-08-17T11:28:18;25.70;96.10
23301;DHT22;11819;51.394;12.340;2023-08-17T11:30:44;25.70;96.20
23301;DHT22;11819;51.394;12.340;2023-08-17T11:33:10;25.80;95.70
23301;DHT22;11819;51.394;12.340;2023-08-17T11:35:37;25.70;95.90
23301;DHT22;11819;51.394;12.340;2023-08-17T11:38:03;25.70;95.90
23301;DHT22;11819;51.394;12.340;2023-08-17T11:40:29;25.80;95.10
23301;DHT22;11819;51.394;12.340;2023-08-17T11:42:55;25.80;95.80
23301;DHT22;11819;51.394;12.340;2023-08-17T11:45:21;25.90;95.80
23301;DHT22;11819;51.394;12.340;2023-08-17T11:47:47;26.00;95.20
23301;DHT22;11819;51.394;12.340;2023-08-17T11:50:13;26.10;94.70
23301;DHT22;11819;51.394;12.340;2023-08-17T11:52:40;26.20;94.70
23301;DHT22;11819;51.394;12.340;2023-08-17T11:55:07;26.30;95.00
23301;DHT22;11819;51.394;12.340;2023-08-17T11:57:37;26.40;95.10
23301;DHT22;11819;51.394;12.340;2023-08-17T12:00:05;26.60;94.50
23301;DHT22;11819;51.394;12.340;2023-08-17T12:02:38;26.60;93.60
23301;DHT22;11819;51.394;12.340;2023-08-17T12:05:08;26.50;93.80
23301;DHT22;11819;51.394;12.340;2023-08-17T12:07:35;26.60;93.90
23301;DHT22;11819;51.394;12.340;2023-08-17T12:10:03;26.60;93.40
23301;DHT22;11819;51.394;12.340;2023-08-17T12:12:28;26.70;92.50
23301;DHT22;11819;51.394;12.340;2023-08-17T12:14:54;26.70;92.60
23301;DHT22;11819;51.394;12.340;2023-08-17T12:17:20;26.70;92.50
23301;DHT22;11819;51.394;12.340;2023-08-17T12:19:53;26.60;92.50
23301;DHT22;11819;51.394;12.340;2023-08-17T12:22:19;26.60;93.00
23301;DHT22;11819;51.394;12.340;2023-08-17T12:24:49;26.60;92.70
23301;DHT22;11819;51.394;12.340;2023-08-17T12:27:14;26.90;93.00
23301;DHT22;11819;51.394;12.340;2023-08-17T12:29:47;27.20;92.60
23301;DHT22;11819;51.394;12.340;2023-08-17T12:32:14;27.50;92.10
23301;DHT22;11819;51.394;12.340;2023-08-17T12:34:41;27.80;91.60
23301;DHT22;11819;51.394;12.340;2023-08-17T12:37:11;28.00;90.50
23301;DHT22;11819;51.394;12.340;2023-08-17T12:39:37;28.00;90.50
23301;DHT22;11819;51.394;12.340;2023-08-17T12:42:06;27.90;90.10
23301;DHT22;11819;51.394;12.340;2023-08-17T12:44:32;27.80;90.40
23301;DHT22;11819;51.394;12.340;2023-08-17T12:46:57;27.60;91.00
23301;DHT22;11819;51.394;12.340;2023-08-17T12:49:23;27.50;90.90
23301;DHT22;11819;51.394;12.340;2023-08-17T12:51:49;27.40;91.60
23301;DHT22;11819;51.394;12.340;2023-08-17T12:54:15;27.30;91.50
23301;DHT22;11819;51.394;12.340;2023-08-17T12:56:41;27.40;91.60
23301;DHT22;11819;51.394;12.340;2023-08-17T12:59:06;27.70;91.80
23301;DHT22;11819;51.394;12.340;2023-08-17T13:01:33;28.10;91.50
23301;DHT22;11819;51.394;12.340;2023-08-17T13:03:58;28.60;90.00
23301;DHT22;11819;51.394;12.340;2023-08-17T13:06:24;29.00;87.00
23301;DHT22;11819;51.394;12.340;2023-08-17T13:08:50;29.40;86.60
23301;DHT22;11819;51.394;12.340;2023-08-17T13:11:15;29.40;85.60
23301;DHT22;11819;51.394;12.340;2023-08-17T13:13:42;29.30;85.50
23301;DHT22;11819;51.394;12.340;2023-08-17T13:16:07;29.10;85.50
23301;DHT22;11819;51.394;12.340;2023-08-17T13:18:34;28.80;86.50
23301;DHT22;11819;51.394;12.340;2023-08-17T13:20:59;28.60;88.30
23301;DHT22;11819;51.394;12.340;2023-08-17T13:23:25;28.50;89.40
23301;DHT22;11819;51.394;12.340;2023-08-17T13:25:51;28.80;87.40
23301;DHT22;11819;51.394;12.340;2023-08-17T13:28:16;29.20;86.10
23301;DHT22;11819;51.394;12.340;2023-08-17T13:30:43;29.60;83.10
23301;DHT22;11819;51.394;12.340;2023-08-17T13:33:08;29.90;81.90
23301;DHT22;11819;51.394;12.340;2023-08-17T13:35:34;30.20;82.00
23301;DHT22;11819;51.394;12.340;2023-08-17T13:38:00;30.50;81.10
23301;DHT22;11819;51.394;12.340;2023-08-17T13:40:28;30.60;80.20
23301;DHT22;11819;51.394;12.340;2023-08-17T13:42:54;30.80;79.60
23301;DHT22;11819;51.394;12.340;2023-08-17T13:45:19;31.10;79.10
23301;DHT22;11819;51.394;12.340;2023-08-17T13:47:45;31.40;78.80
23301;DHT22;11819;51.394;12.340;2023-08-17T13:50:10;31.50;76.70
23301;DHT22;11819;51.394;12.340;2023-08-17T13:52:36;31.70;77.30
23301;DHT22;11819;51.394;12.340;2023-08-17T13:55:02;31.80;77.00
23301;DHT22;11819;51.394;12.340;2023-08-17T13:57:28;31.70;76.50
23301;DHT22;11819;51.394;12.340;2023-08-17T13:59:54;31.50;75.80
23301;DHT22;11819;51.394;12.340;2023-08-17T14:02:20;31.10;78.10
23301;DHT22;11819;51.394;12.340;2023-08-17T14:04:46;30.80;76.40
23301;DHT22;11819;51.394;12.340;2023-08-17T14:07:12;30.50;78.50
23301;DHT22;11819;51.394;12.340;2023-08-17T14:09:37;30.20;80.70
23301;DHT22;11819;51.394;12.340;2023-08-17T14:12:03;29.90;81.80
23301;DHT22;11819;51.394;12.340;2023-08-17T14:14:30;29.70;82.60
23301;DHT22;11819;51.394;12.340;2023-08-17T14:16:56;29.40;84.10
23301;DHT22;11819;51.394;12.340;2023-08-17T14:19:22;29.10;84.30
23301;DHT22;11819;51.394;12.340;2023-08-17T14:21:48;28.90;85.20
23301;DHT22;11819;51.394;12.340;2023-08-17T14:24:14;28.80;86.00
23301;DHT22;11819;51.394;12.340;2023-08-17T14:26:40;28.60;86.80
23301;DHT22;11819;51.394;12.340;2023-08-17T14:29:05;28.50;86.40
23301;DHT22;11819;51.394;12.340;2023-08-17T14:31:31;28.30;86.50
23301;DHT22;11819;51.394;12.340;2023-08-17T14:33:57;28.20;87.80
23301;DHT22;11819;51.394;12.340;2023-08-17T14:36:22;28.10;89.00
23301;DHT22;11819;51.394;12.340;2023-08-17T14:38:48;28.00;89.10
23301;DHT22;11819;51.394;12.340;2023-08-17T14:41:13;27.90;89.50
23301;DHT22;11819;51.394;12.340;2023-08-17T14:43:39;27.80;89.20
23301;DHT22;11819;51.394;12.340;2023-08-17T14:46:05;27.70;90.00
23301;DHT22;11819;51.394;12.340;2023-08-17T14:48:30;27.60;90.40
23301;DHT22;11819;51.394;12.340;2023-08-17T14:50:56;27.50;90.50
23301;DHT22;11819;51.394;12.340;2023-08-17T14:53:22;27.50;90.80
23301;DHT22;11819;51.394;12.340;2023-08-17T14:55:47;27.40;91.00
23301;DHT22;11819;51.394;12.340;2023-08-17T14:58:13;27.40;91.00
23301;DHT22;11819;51.394;12.340;2023-08-17T15:00:39;27.40;90.90
23301;DHT22;11819;51.394;12.340;2023-08-17T15:03:05;27.30;91.20
23301;DHT22;11819;51.394;12.340;2023-08-17T15:05:30;27.30;91.10
23301;DHT22;11819;51.394;12.340;2023-08-17T15:07:56;27.20;91.00
23301;DHT22;11819;51.394;12.340;2023-08-17T15:10:22;27.10;91.20
23301;DHT22;11819;51.394;12.340;2023-08-17T15:12:48;26.90;91.10
23301;DHT22;11819;51.394;12.340;2023-08-17T15:15:14;26.80;91.20
23301;DHT22;11819;51.394;12.340;2023-08-17T15:17:40;26.80;91.50
23301;DHT22;11819;51.394;12.340;2023-08-17T15:20:07;26.80;91.10
23301;DHT22;11819;51.394;12.340;2023-08-17T15:22:32;26.70;91.60
23301;DHT22;11819;51.394;12.340;2023-08-17T15:24:58;26.70;91.60